createdAt,value
2018-03-22T00:00:05.135Z,20.93
2018-03-22T00:02:32.687Z,20.10
2018-03-22T00:05:00.202Z,19.70
2018-03-22T00:07:27.724Z,20.63
2018-03-22T00:09:55.261Z,20.97
2018-03-22T00:12:22.809Z,21.80
2018-03-22T00:14:50.411Z,20.50
2018-03-22T00:17:17.933Z,22.47
2018-03-22T00:19:45.479Z,21.37
2018-03-22T00:22:24.669Z,23.23
2018-03-22T00:24:52.214Z,22.27
2018-03-22T00:27:19.776Z,23.07
2018-03-22T00:29:47.317Z,21.67
2018-03-22T00:32:14.850Z,23.83
2018-03-22T00:34:42.353Z,24.63
2018-03-22T00:37:09.850Z,23.53
2018-03-22T00:39:37.369Z,22.90
2018-03-22T00:42:04.877Z,23.20
2018-03-22T00:44:32.386Z,22.83
2018-03-22T00:46:59.920Z,22.93
2018-03-22T00:49:27.789Z,25.33
2018-03-22T00:51:55.301Z,22.67
2018-03-22T00:54:23.267Z,25.03
2018-03-22T00:56:50.783Z,24.70
2018-03-22T00:59:19.327Z,24.37
2018-03-22T01:01:46.845Z,24.87
2018-03-22T01:04:14.375Z,24.93
2018-03-22T01:06:41.936Z,24.37
2018-03-22T01:09:09.482Z,24.97
2018-03-22T01:11:37.001Z,25.17
2018-03-22T01:14:04.549Z,25.97
2018-03-22T01:16:32.064Z,27.33
2018-03-22T01:18:59.578Z,26.67
2018-03-22T01:21:27.088Z,26.67
2018-03-22T01:23:54.609Z,26.87
2018-03-22T01:26:22.139Z,27.77
2018-03-22T01:28:49.919Z,26.03
2018-03-22T01:31:17.451Z,27.07
2018-03-22T01:33:45.547Z,26.67
2018-03-22T01:36:13.077Z,25.70
2018-03-22T01:38:40.707Z,25.80
2018-03-22T01:41:08.201Z,26.30
2018-03-22T01:43:35.776Z,27.17
2018-03-22T01:46:03.306Z,27.17
2018-03-22T01:48:30.865Z,27.50
2018-03-22T01:50:58.416Z,26.07
2018-03-22T01:53:25.962Z,25.87
2018-03-22T01:55:53.534Z,27.40
2018-03-22T01:58:21.074Z,27.40
2018-03-22T02:00:48.635Z,25.20
2018-03-22T02:03:16.290Z,25.23
2018-03-22T02:05:43.831Z,26.87
2018-03-22T02:08:11.837Z,27.40
2018-03-22T02:10:39.362Z,26.60
2018-03-22T02:13:06.867Z,28.10
2018-03-22T02:15:34.399Z,27.63
2018-03-22T02:18:01.919Z,27.10
2018-03-22T02:20:29.450Z,26.03
2018-03-22T02:22:56.967Z,26.97
2018-03-22T02:25:24.572Z,26.10
2018-03-22T02:27:52.111Z,27.40
2018-03-22T02:30:19.641Z,26.93
2018-03-22T02:32:47.176Z,27.23
2018-03-22T02:35:14.681Z,27.23
2018-03-22T02:37:42.223Z,27.73
2018-03-22T02:40:09.761Z,26.07
2018-03-22T02:42:38.786Z,27.37
2018-03-22T02:45:06.443Z,27.83
2018-03-22T02:47:33.960Z,28.47
2018-03-22T02:50:01.481Z,27.90
2018-03-22T02:52:29.013Z,25.70
2018-03-22T02:54:56.599Z,26.90
2018-03-22T02:57:24.084Z,27.17
2018-03-22T02:59:51.619Z,27.37
2018-03-22T03:02:19.140Z,27.30
2018-03-22T03:04:46.663Z,28.17
2018-03-22T03:07:14.227Z,28.47
2018-03-22T03:09:41.788Z,27.40
2018-03-22T03:12:09.303Z,26.77
2018-03-22T03:14:36.866Z,27.67
2018-03-22T03:17:04.400Z,29.50
2018-03-22T03:19:31.920Z,27.57
2018-03-22T03:21:59.422Z,28.23
2018-03-22T03:24:26.959Z,27.50
2018-03-22T03:26:54.479Z,28.07
2018-03-22T03:29:22.095Z,27.50
2018-03-22T03:31:49.621Z,28.33
2018-03-22T03:34:17.128Z,28.03
2018-03-22T03:36:44.629Z,27.20
2018-03-22T03:39:12.178Z,27.03
2018-03-22T03:41:39.739Z,27.73
2018-03-22T03:44:07.300Z,26.63
2018-03-22T03:46:34.844Z,27.23
2018-03-22T03:49:02.400Z,26.73
2018-03-22T03:51:29.962Z,26.67
2018-03-22T03:53:57.582Z,27.43
2018-03-22T03:56:25.115Z,28.20
2018-03-22T03:58:52.623Z,27.03
2018-03-22T04:01:20.156Z,26.33
2018-03-22T04:03:47.646Z,26.00
2018-03-22T04:06:15.135Z,27.17
2018-03-22T04:08:42.701Z,27.00
2018-03-22T04:11:10.246Z,26.63
2018-03-22T04:13:37.777Z,28.27
2018-03-22T04:16:05.299Z,26.23
2018-03-22T04:18:32.805Z,26.80
2018-03-22T04:21:00.333Z,25.93
2018-03-22T04:23:27.856Z,25.87
2018-03-22T04:25:55.409Z,26.67
2018-03-22T04:28:22.934Z,27.33
2018-03-22T04:30:50.432Z,29.10
2018-03-22T04:33:17.950Z,26.47
2018-03-22T04:35:45.477Z,28.50
2018-03-22T04:38:12.976Z,28.23
2018-03-22T04:40:40.502Z,27.87
2018-03-22T04:43:08.032Z,30.90
2018-03-22T04:45:36.448Z,29.10
2018-03-22T04:48:03.958Z,30.20
2018-03-22T04:50:31.464Z,30.97
2018-03-22T04:52:59.004Z,32.70
2018-03-22T04:55:26.508Z,30.97
2018-03-22T04:57:54.047Z,32.63
2018-03-22T05:00:21.581Z,32.03
2018-03-22T05:02:49.104Z,33.17
2018-03-22T05:05:16.629Z,35.33
2018-03-22T05:07:44.172Z,34.50
2018-03-22T05:10:12.236Z,36.03
2018-03-22T05:12:39.823Z,35.30
2018-03-22T05:15:07.345Z,35.13
2018-03-22T05:17:34.910Z,34.30
2018-03-22T05:20:02.437Z,33.67
2018-03-22T05:22:29.984Z,33.93
2018-03-22T05:24:57.503Z,34.87
2018-03-22T05:27:25.615Z,32.53
2018-03-22T05:29:53.176Z,33.57
2018-03-22T05:32:20.701Z,31.53
2018-03-22T05:34:48.236Z,33.87
2018-03-22T05:37:15.820Z,31.10
2018-03-22T05:39:43.325Z,32.67
2018-03-22T05:42:11.589Z,33.57
2018-03-22T05:44:39.117Z,33.73
2018-03-22T05:47:06.677Z,32.17
2018-03-22T05:49:34.201Z,33.10
2018-03-22T05:52:01.713Z,33.70
2018-03-22T05:54:30.081Z,34.30
2018-03-22T05:56:57.603Z,32.03
2018-03-22T05:59:25.145Z,33.70
2018-03-22T06:01:52.669Z,32.50
2018-03-22T06:04:20.195Z,30.93
2018-03-22T06:06:47.733Z,34.30
2018-03-22T06:09:15.347Z,32.90
2018-03-22T06:11:42.876Z,34.20
2018-03-22T06:14:10.427Z,33.00
2018-03-22T06:16:37.958Z,31.93
2018-03-22T06:19:05.516Z,31.60
2018-03-22T06:21:33.017Z,31.93
2018-03-22T06:24:00.557Z,32.90
2018-03-22T06:26:28.114Z,32.17
2018-03-22T06:28:55.695Z,30.30
2018-03-22T06:31:23.232Z,33.10
2018-03-22T06:33:50.765Z,32.83
2018-03-22T06:36:18.285Z,34.27
2018-03-22T06:38:45.812Z,31.37
2018-03-22T06:41:13.458Z,32.47
2018-03-22T06:43:41.018Z,32.20
2018-03-22T06:46:08.558Z,32.00
2018-03-22T06:48:36.097Z,32.87
2018-03-22T06:51:03.666Z,33.93
2018-03-22T06:53:31.173Z,33.20
2018-03-22T06:55:58.699Z,32.13
2018-03-22T06:58:26.232Z,32.97
2018-03-22T07:00:53.817Z,32.80
2018-03-22T07:03:21.311Z,33.73
2018-03-22T07:05:48.857Z,33.07
2018-03-22T07:08:16.391Z,34.57
2018-03-22T07:10:43.919Z,34.10
2018-03-22T07:13:11.511Z,33.80
2018-03-22T07:15:39.039Z,32.23
2018-03-22T07:18:06.574Z,33.97
2018-03-22T07:20:34.815Z,33.00
2018-03-22T07:23:02.345Z,34.37
2018-03-22T07:25:29.949Z,35.17
2018-03-22T07:27:57.513Z,33.80
2018-03-22T07:30:25.076Z,32.77
2018-03-22T07:32:52.624Z,34.57
2018-03-22T07:35:20.162Z,34.27
2018-03-22T07:37:47.691Z,34.97
2018-03-22T07:40:15.240Z,34.47
2018-03-22T07:42:42.746Z,33.63
2018-03-22T07:45:10.264Z,33.90
2018-03-22T07:47:37.809Z,35.17
2018-03-22T07:50:05.325Z,38.13
2018-03-22T07:52:32.847Z,38.07
2018-03-22T07:55:00.398Z,38.00
2018-03-22T07:57:27.934Z,35.20
2018-03-22T07:59:55.480Z,36.37
2018-03-22T08:02:23.024Z,35.40
2018-03-22T08:04:50.541Z,37.70
2018-03-22T08:07:18.090Z,38.03
2018-03-22T08:09:45.614Z,38.43
2018-03-22T08:12:13.166Z,37.00
2018-03-22T08:14:40.712Z,38.00
2018-03-22T08:17:08.234Z,37.47
2018-03-22T08:19:35.748Z,36.50
2018-03-22T08:22:03.317Z,37.07
2018-03-22T08:24:30.875Z,37.17
2018-03-22T08:26:58.447Z,37.47
2018-03-22T08:29:25.970Z,37.07
2018-03-22T08:31:53.506Z,39.17
2018-03-22T08:34:21.037Z,36.40
2018-03-22T08:36:48.565Z,37.53
2018-03-22T08:39:16.093Z,37.07
2018-03-22T08:41:43.642Z,36.63
2018-03-22T08:44:11.168Z,38.20
2018-03-22T08:46:38.694Z,38.63
2018-03-22T08:49:06.251Z,38.27
2018-03-22T08:51:33.884Z,38.07
2018-03-22T08:54:01.414Z,37.43
2018-03-22T08:56:28.928Z,39.17
2018-03-22T08:58:56.565Z,37.60
2018-03-22T09:01:24.182Z,38.43
2018-03-22T09:03:51.683Z,38.50
2018-03-22T09:06:19.250Z,37.23
2018-03-22T09:08:46.791Z,37.67
2018-03-22T09:11:14.352Z,37.20
2018-03-22T09:13:41.886Z,35.37
2018-03-22T09:16:09.432Z,35.80
2018-03-22T09:18:36.950Z,35.43
2018-03-22T09:21:04.488Z,35.37
2018-03-22T09:23:32.013Z,33.07
2018-03-22T09:25:59.575Z,34.87
2018-03-22T09:28:27.139Z,35.63
2018-03-22T09:30:54.662Z,32.37
2018-03-22T09:33:22.207Z,32.57
2018-03-22T09:35:49.744Z,31.93
2018-03-22T09:38:17.325Z,32.57
2018-03-22T09:40:44.858Z,29.73
2018-03-22T09:43:12.364Z,32.23
2018-03-22T09:45:39.908Z,30.93
2018-03-22T09:48:07.529Z,29.00
2018-03-22T09:50:35.057Z,31.47
2018-03-22T09:53:02.601Z,30.83
2018-03-22T09:55:30.152Z,29.73
2018-03-22T09:57:57.766Z,30.33
2018-03-22T10:00:25.266Z,28.87
2018-03-22T10:02:52.931Z,29.23
2018-03-22T10:05:21.267Z,28.30
2018-03-22T10:07:48.821Z,30.67
2018-03-22T10:10:16.341Z,30.87
2018-03-22T10:12:43.862Z,28.63
2018-03-22T10:15:11.361Z,30.53
2018-03-22T10:17:38.912Z,29.43
2018-03-22T10:20:06.514Z,30.27
2018-03-22T10:22:34.057Z,28.67
2018-03-22T10:25:01.593Z,29.87
2018-03-22T10:27:29.148Z,28.70
2018-03-22T10:29:56.717Z,28.63
2018-03-22T10:32:24.225Z,28.43
2018-03-22T10:34:51.805Z,28.67
2018-03-22T10:37:19.354Z,27.87
2018-03-22T10:39:46.987Z,27.97
2018-03-22T10:42:14.509Z,28.50
2018-03-22T10:44:42.076Z,27.57
2018-03-22T10:47:09.583Z,27.03
2018-03-22T10:49:37.124Z,27.23
2018-03-22T10:52:04.696Z,28.43
2018-03-22T10:54:32.255Z,26.77
2018-03-22T10:56:59.766Z,24.73
2018-03-22T10:59:27.382Z,25.57
2018-03-22T11:02:00.777Z,25.70
2018-03-22T11:04:28.310Z,26.03
2018-03-22T11:06:55.860Z,25.60
2018-03-22T11:09:23.394Z,24.20
2018-03-22T11:11:50.951Z,24.07
2018-03-22T11:14:18.476Z,25.03
2018-03-22T11:16:46.037Z,24.43
2018-03-22T11:19:13.577Z,24.00
2018-03-22T11:21:41.121Z,23.40
2018-03-22T11:24:08.667Z,23.90
2018-03-22T11:26:36.213Z,22.67
2018-03-22T11:29:03.726Z,22.50
2018-03-22T11:31:31.256Z,21.20
2018-03-22T11:33:58.776Z,21.43
2018-03-22T11:36:26.301Z,21.07
2018-03-22T11:38:53.842Z,20.17
2018-03-22T11:41:21.416Z,20.13
2018-03-22T11:43:48.930Z,20.03
2018-03-22T11:46:16.429Z,19.93
2018-03-22T11:48:43.959Z,19.37
2018-03-22T11:51:11.527Z,18.70
2018-03-22T11:53:39.131Z,19.67
2018-03-22T11:56:06.659Z,18.83
2018-03-22T11:58:35.285Z,20.00
2018-03-22T12:01:02.890Z,19.37
2018-03-22T12:03:30.463Z,17.23
2018-03-22T12:05:58.002Z,18.07
2018-03-22T12:08:25.570Z,18.10
2018-03-22T12:10:53.136Z,18.27
2018-03-22T12:13:20.724Z,17.57
2018-03-22T12:15:48.283Z,17.80
2018-03-22T12:18:15.818Z,18.37
2018-03-22T12:20:43.378Z,18.30
2018-03-22T12:23:10.936Z,19.17
2018-03-22T12:25:38.499Z,19.47
2018-03-22T12:28:06.051Z,19.00
2018-03-22T12:30:33.579Z,19.73
2018-03-22T12:33:01.139Z,19.03
2018-03-22T12:35:28.693Z,19.93
2018-03-22T12:37:56.234Z,19.40
2018-03-22T12:40:23.783Z,18.80
2018-03-22T12:42:51.337Z,19.03
2018-03-22T12:45:18.884Z,19.00
2018-03-22T12:47:46.399Z,19.53
2018-03-22T12:50:13.965Z,19.63
2018-03-22T12:52:41.474Z,21.20
2018-03-22T12:55:09.499Z,20.03
2018-03-22T12:57:37.020Z,19.17
2018-03-22T13:00:04.618Z,20.47
2018-03-22T13:02:32.105Z,21.03
2018-03-22T13:04:59.634Z,21.27
2018-03-22T13:07:27.154Z,22.83
2018-03-22T13:09:54.693Z,21.13
2018-03-22T13:12:22.243Z,21.33
2018-03-22T13:14:49.766Z,20.83
2018-03-22T13:17:17.285Z,22.23
2018-03-22T13:19:44.813Z,20.67
2018-03-22T13:22:12.328Z,21.17
2018-03-22T13:24:39.859Z,21.70
2018-03-22T13:27:07.378Z,23.13
2018-03-22T13:29:34.874Z,22.87
2018-03-22T13:32:02.404Z,23.13
2018-03-22T13:34:29.956Z,22.20
2018-03-22T13:36:57.485Z,22.97
2018-03-22T13:39:25.019Z,23.17
2018-03-22T13:41:52.544Z,22.63
2018-03-22T13:44:20.089Z,23.60
2018-03-22T13:46:47.621Z,23.50
2018-03-22T13:49:15.161Z,24.47
2018-03-22T13:51:42.692Z,23.73
2018-03-22T13:54:10.225Z,23.43
2018-03-22T13:56:37.776Z,23.20
2018-03-22T13:59:05.336Z,23.90
2018-03-22T14:01:32.842Z,23.73
2018-03-22T14:04:00.367Z,23.97
2018-03-22T14:06:27.917Z,22.80
2018-03-22T14:08:55.429Z,23.33
2018-03-22T14:11:22.997Z,22.13
2018-03-22T14:13:50.504Z,23.03
2018-03-22T14:16:18.021Z,24.17
2018-03-22T14:18:45.599Z,23.57
2018-03-22T14:21:13.145Z,23.80
2018-03-22T14:23:40.636Z,24.87
2018-03-22T14:26:08.191Z,22.67
2018-03-22T14:28:35.717Z,24.47
2018-03-22T14:31:03.254Z,22.83
2018-03-22T14:33:30.761Z,24.83
2018-03-22T14:35:58.319Z,24.30
2018-03-22T14:38:26.599Z,25.13
2018-03-22T14:40:54.165Z,25.47
2018-03-22T14:43:21.703Z,25.43
2018-03-22T14:45:49.233Z,24.27
2018-03-22T14:48:16.820Z,23.97
2018-03-22T14:50:44.337Z,24.13
2018-03-22T14:53:11.891Z,22.70
2018-03-22T14:55:39.433Z,23.30
2018-03-22T14:58:07.011Z,25.33
2018-03-22T15:00:34.591Z,23.97
2018-03-22T15:03:02.133Z,23.20
2018-03-22T15:05:29.636Z,21.60
2018-03-22T15:07:57.187Z,22.80
2018-03-22T15:10:24.824Z,22.50
2018-03-22T15:12:52.414Z,21.67
2018-03-22T15:15:24.439Z,19.93
2018-03-22T15:17:52.070Z,21.23
2018-03-22T15:20:19.655Z,20.60
2018-03-22T15:22:47.176Z,20.53
2018-03-22T15:25:14.711Z,20.27
2018-03-22T15:27:42.209Z,18.87
2018-03-22T15:30:09.745Z,19.57
2018-03-22T15:32:37.290Z,20.23
2018-03-22T15:35:04.853Z,17.97
2018-03-22T15:37:32.409Z,19.33
2018-03-22T15:40:00.027Z,18.23
2018-03-22T15:42:27.545Z,18.13
2018-03-22T15:44:55.105Z,18.27
2018-03-22T15:47:22.652Z,17.33
2018-03-22T15:49:53.575Z,18.27
2018-03-22T15:52:21.124Z,17.70
2018-03-22T15:54:48.621Z,17.50
2018-03-22T15:57:16.145Z,18.43
2018-03-22T15:59:43.737Z,17.43
2018-03-22T16:02:11.320Z,18.60
2018-03-22T16:04:38.829Z,18.17
2018-03-22T16:07:06.364Z,18.00
2018-03-22T16:09:34.222Z,18.23
2018-03-22T16:12:01.858Z,17.60
2018-03-22T16:14:29.382Z,18.17
2018-03-22T16:16:56.903Z,18.13
2018-03-22T16:19:24.498Z,18.43
2018-03-22T16:21:51.988Z,18.93
2018-03-22T16:24:19.512Z,18.63
2018-03-22T16:26:47.088Z,18.43
2018-03-22T16:29:14.719Z,18.20
2018-03-22T16:31:42.296Z,17.57
2018-03-22T16:34:09.849Z,18.97
2018-03-22T16:36:37.369Z,18.50
2018-03-22T16:39:04.974Z,19.53
2018-03-22T16:41:32.514Z,19.70
2018-03-22T16:44:00.039Z,17.43
2018-03-22T16:46:27.621Z,17.77
2018-03-22T16:48:55.180Z,19.37
2018-03-22T16:51:22.751Z,18.40
2018-03-22T16:53:50.318Z,17.07
2018-03-22T16:56:17.843Z,18.57
2018-03-22T16:58:45.368Z,18.67
2018-03-22T17:01:13.677Z,18.93
2018-03-22T17:03:42.788Z,18.07
2018-03-22T17:06:10.577Z,17.53
2018-03-22T17:08:40.171Z,17.03
2018-03-22T17:11:08.023Z,16.83
2018-03-22T17:13:35.608Z,17.80
2018-03-22T17:16:03.107Z,17.23
2018-03-22T17:18:30.633Z,17.80
2018-03-22T17:20:58.181Z,17.40
2018-03-22T17:23:25.797Z,17.97
2018-03-22T17:25:53.373Z,17.73
2018-03-22T17:28:21.013Z,17.13
2018-03-22T17:30:48.569Z,17.60
2018-03-22T17:33:16.971Z,17.33
2018-03-22T17:35:46.065Z,17.57
2018-03-22T17:38:13.633Z,17.23
2018-03-22T17:40:41.148Z,17.20
2018-03-22T17:43:08.770Z,16.97
2018-03-22T17:45:37.446Z,17.83
2018-03-22T17:48:04.955Z,17.17
2018-03-22T17:50:32.473Z,18.17
2018-03-22T17:53:00.077Z,16.50
2018-03-22T17:55:27.667Z,17.50
2018-03-22T17:57:55.265Z,17.10
2018-03-22T18:00:22.858Z,17.13
2018-03-22T18:02:50.387Z,16.00
2018-03-22T18:05:17.977Z,16.93
2018-03-22T18:07:45.571Z,16.33
2018-03-22T18:10:13.065Z,18.27
2018-03-22T18:12:41.991Z,17.37
2018-03-22T18:15:09.523Z,17.17
2018-03-22T18:17:37.075Z,17.70
2018-03-22T18:20:04.618Z,17.63
2018-03-22T18:22:32.249Z,17.90
2018-03-22T18:24:59.848Z,17.77
2018-03-22T18:27:27.379Z,19.30
2018-03-22T18:29:54.934Z,18.90
2018-03-22T18:32:22.538Z,18.97
2018-03-22T18:34:50.046Z,19.50
2018-03-22T18:37:17.878Z,18.37
2018-03-22T18:39:45.472Z,20.63
2018-03-22T18:42:13.957Z,20.10
2018-03-22T18:44:41.475Z,19.53
2018-03-22T18:47:08.973Z,17.60
2018-03-22T18:49:38.081Z,18.63
2018-03-22T18:52:05.987Z,19.07
2018-03-22T18:54:33.526Z,18.27
2018-03-22T18:57:01.020Z,17.53
2018-03-22T18:59:28.592Z,17.20
2018-03-22T19:01:56.114Z,18.20
2018-03-22T19:04:24.087Z,15.67
2018-03-22T19:06:52.114Z,16.33
2018-03-22T19:09:19.655Z,14.60
2018-03-22T19:11:47.282Z,13.47
2018-03-22T19:14:14.843Z,12.40
2018-03-22T19:16:42.430Z,9.03
2018-03-22T19:19:09.948Z,7.43
2018-03-22T19:21:37.605Z,5.70
2018-03-22T19:24:05.068Z,5.23
2018-03-22T19:26:32.923Z,4.47
2018-03-22T19:29:00.612Z,4.20
2018-03-22T19:31:29.260Z,4.23
2018-03-22T19:33:57.745Z,3.90
2018-03-22T19:36:25.356Z,3.40
2018-03-22T19:38:52.935Z,2.50
2018-03-22T19:41:20.518Z,2.70
2018-03-22T19:43:48.047Z,2.80
2018-03-22T19:46:15.564Z,2.80
2018-03-22T19:48:43.343Z,2.53
2018-03-22T19:51:10.933Z,2.80
2018-03-22T19:53:38.441Z,2.93
2018-03-22T19:56:06.013Z,2.90
2018-03-22T19:58:33.508Z,3.10
2018-03-22T20:01:01.021Z,2.80
2018-03-22T20:03:28.543Z,2.87
2018-03-22T20:05:56.079Z,2.90
2018-03-22T20:08:23.909Z,3.13
2018-03-22T20:10:51.543Z,3.07
2018-03-22T20:13:19.145Z,3.47
2018-03-22T20:15:47.420Z,3.90
2018-03-22T20:18:15.097Z,3.70
2018-03-22T20:20:42.566Z,4.33
2018-03-22T20:23:10.083Z,4.03
2018-03-22T20:25:37.704Z,4.20
2018-03-22T20:28:05.502Z,4.20
2018-03-22T20:30:33.062Z,4.10
2018-03-22T20:33:00.600Z,4.23
2018-03-22T20:35:28.299Z,4.43
2018-03-22T20:37:55.926Z,3.93
2018-03-22T20:40:24.350Z,4.60
2018-03-22T20:42:52.294Z,4.93
2018-03-22T20:45:20.028Z,5.03
2018-03-22T20:47:47.612Z,4.90
2018-03-22T20:50:15.387Z,5.37
2018-03-22T20:52:43.032Z,5.50
2018-03-22T20:55:10.674Z,5.47
2018-03-22T20:57:38.211Z,6.23
2018-03-22T21:00:05.794Z,6.57
2018-03-22T21:02:33.323Z,6.17
2018-03-22T21:05:00.864Z,5.77
2018-03-22T21:07:28.360Z,6.63
2018-03-22T21:09:55.858Z,7.30
2018-03-22T21:12:23.359Z,7.20
2018-03-22T21:14:50.950Z,6.77
2018-03-22T21:17:18.425Z,6.80
2018-03-22T21:19:46.013Z,6.73
2018-03-22T21:22:13.539Z,6.90
2018-03-22T21:24:41.029Z,7.87
2018-03-22T21:27:08.541Z,7.10
2018-03-22T21:29:36.096Z,7.77
2018-03-22T21:32:03.611Z,8.17
2018-03-22T21:34:32.167Z,7.40
2018-03-22T21:36:59.769Z,7.77
2018-03-22T21:39:27.371Z,8.10
2018-03-22T21:42:05.812Z,8.47
2018-03-22T21:44:33.321Z,8.20
2018-03-22T21:47:12.780Z,8.03
2018-03-22T21:49:41.546Z,8.10
2018-03-22T21:52:21.380Z,7.60
2018-03-22T21:54:49.921Z,8.33
2018-03-22T21:57:17.476Z,9.33
2018-03-22T21:59:45.056Z,8.77
2018-03-22T22:02:12.770Z,10.20
2018-03-22T22:04:40.299Z,9.50
2018-03-22T22:07:07.859Z,10.83
2018-03-22T22:09:35.457Z,10.33
2018-03-22T22:12:02.976Z,10.77
2018-03-22T22:14:30.518Z,11.53
2018-03-22T22:16:58.048Z,13.03
2018-03-22T22:19:25.707Z,12.53
2018-03-22T22:21:53.247Z,13.53
2018-03-22T22:24:20.772Z,13.87
2018-03-22T22:26:48.276Z,13.83
2018-03-22T22:29:15.789Z,14.77
2018-03-22T22:31:43.313Z,14.57
2018-03-22T22:34:10.851Z,14.37
2018-03-22T22:36:38.357Z,14.07
2018-03-22T22:39:05.941Z,14.73
2018-03-22T22:41:33.452Z,15.17
2018-03-22T22:44:01.056Z,14.17
2018-03-22T22:46:28.583Z,15.27
2018-03-22T22:48:56.138Z,14.27
2018-03-22T22:51:23.735Z,14.77
2018-03-22T22:53:51.241Z,16.07
2018-03-22T22:56:18.787Z,14.97
2018-03-22T22:58:46.305Z,15.53
2018-03-22T23:01:13.833Z,14.40
2018-03-22T23:03:41.373Z,17.30
2018-03-22T23:06:08.940Z,14.07
2018-03-22T23:08:36.477Z,16.33
2018-03-22T23:11:04.053Z,15.47
2018-03-22T23:13:31.606Z,15.33
2018-03-22T23:15:59.195Z,16.43
2018-03-22T23:18:26.752Z,16.63
2018-03-22T23:20:54.245Z,15.30
2018-03-22T23:26:52.015Z,14.60
2018-03-22T23:29:19.552Z,15.60
2018-03-22T23:31:47.081Z,17.83
2018-03-22T23:34:14.594Z,16.57
2018-03-22T23:36:42.133Z,16.90
2018-03-22T23:39:10.095Z,18.10
2018-03-22T23:41:37.629Z,17.60
2018-03-22T23:44:05.167Z,16.40
2018-03-22T23:46:32.679Z,15.63
2018-03-22T23:49:00.264Z,16.93
2018-03-22T23:51:27.768Z,16.97
2018-03-22T23:53:55.296Z,17.30
2018-03-22T23:56:23.353Z,17.40
2018-03-22T23:58:50.867Z,16.43
